createdAt,value
2019-06-25T00:00:13.370Z,6.70
2019-06-25T00:02:41.847Z,8.13
2019-06-25T00:05:10.500Z,6.93
2019-06-25T00:07:38.930Z,7.47
2019-06-25T00:10:07.773Z,7.77
2019-06-25T00:12:36.175Z,7.47
2019-06-25T00:15:05.832Z,6.97
2019-06-25T00:17:34.276Z,6.70
2019-06-25T00:20:02.985Z,8.03
2019-06-25T00:22:31.328Z,7.30
2019-06-25T00:24:59.924Z,7.60
2019-06-25T00:27:28.613Z,8.00
2019-06-25T00:29:56.903Z,7.67
2019-06-25T00:32:25.217Z,7.30
2019-06-25T00:34:53.600Z,7.70
2019-06-25T00:37:22.009Z,7.40
2019-06-25T00:39:50.478Z,7.33
2019-06-25T00:42:18.877Z,6.83
2019-06-25T00:44:47.183Z,7.63
2019-06-25T00:47:15.531Z,8.00
2019-06-25T00:49:43.938Z,8.17
2019-06-25T00:52:12.363Z,7.93
2019-06-25T00:54:41.123Z,7.90
2019-06-25T00:57:09.484Z,7.50
2019-06-25T00:59:37.943Z,8.10
2019-06-25T01:02:07.949Z,7.80
2019-06-25T01:04:36.345Z,7.30
2019-06-25T01:07:04.715Z,7.37
2019-06-25T01:09:33.047Z,8.10
2019-06-25T01:12:01.339Z,7.03
2019-06-25T01:14:29.768Z,7.70
2019-06-25T01:16:58.240Z,8.50
2019-06-25T01:19:26.648Z,8.03
2019-06-25T01:21:55.046Z,8.13
2019-06-25T01:24:23.383Z,8.83
2019-06-25T01:26:51.669Z,8.77
2019-06-25T01:29:20.151Z,8.50
2019-06-25T01:31:48.626Z,8.43
2019-06-25T01:34:17.032Z,8.67
2019-06-25T01:36:45.342Z,8.07
2019-06-25T01:39:13.645Z,7.87
2019-06-25T01:41:42.098Z,8.10
2019-06-25T01:44:12.127Z,7.67
2019-06-25T01:46:40.441Z,8.23
2019-06-25T01:49:08.826Z,7.97
2019-06-25T01:51:37.279Z,8.27
2019-06-25T01:54:05.740Z,8.50
2019-06-25T01:56:34.112Z,9.57
2019-06-25T01:59:02.428Z,8.60
2019-06-25T02:01:30.727Z,8.60
2019-06-25T02:03:59.016Z,7.80
2019-06-25T02:06:27.333Z,7.70
2019-06-25T02:08:55.703Z,8.10
2019-06-25T02:11:24.054Z,8.20
2019-06-25T02:13:52.354Z,8.37
2019-06-25T02:16:20.761Z,7.80
2019-06-25T02:18:49.151Z,7.63
2019-06-25T02:21:17.549Z,8.70
2019-06-25T02:23:45.848Z,8.60
2019-06-25T02:26:14.251Z,8.80
2019-06-25T02:28:42.630Z,9.17
2019-06-25T02:31:11.039Z,8.97
2019-06-25T02:33:39.408Z,8.67
2019-06-25T02:36:07.728Z,8.97
2019-06-25T02:38:36.095Z,9.33
2019-06-25T02:41:04.667Z,8.50
2019-06-25T02:43:33.022Z,9.03
2019-06-25T02:46:01.538Z,8.37
2019-06-25T02:48:29.830Z,9.27
2019-06-25T02:50:58.164Z,8.73
2019-06-25T02:53:26.454Z,8.63
2019-06-25T02:55:54.783Z,8.53
2019-06-25T02:58:23.137Z,8.47
2019-06-25T03:00:51.468Z,8.83
2019-06-25T03:03:19.866Z,9.27
2019-06-25T03:05:48.239Z,9.00
2019-06-25T03:08:16.652Z,9.40
2019-06-25T03:10:44.964Z,9.43
2019-06-25T03:13:13.299Z,8.60
2019-06-25T03:15:41.589Z,9.07
2019-06-25T03:18:10.207Z,8.83
2019-06-25T03:20:38.579Z,8.90
2019-06-25T03:23:07.022Z,9.20
2019-06-25T03:25:35.391Z,9.10
2019-06-25T03:28:03.723Z,9.57
2019-06-25T03:30:32.129Z,10.00
2019-06-25T03:33:00.492Z,10.37
2019-06-25T03:35:28.903Z,11.10
2019-06-25T03:37:57.287Z,11.93
2019-06-25T03:40:25.594Z,12.27
2019-06-25T03:42:53.974Z,10.50
2019-06-25T03:45:22.536Z,12.07
2019-06-25T03:47:51.768Z,10.83
2019-06-25T03:50:20.123Z,10.73
2019-06-25T03:52:48.997Z,10.37
2019-06-25T03:55:17.322Z,9.63
2019-06-25T03:57:45.704Z,9.50
2019-06-25T04:00:14.386Z,9.17
2019-06-25T04:02:42.718Z,9.90
2019-06-25T04:05:11.552Z,9.33
2019-06-25T04:07:40.013Z,9.80
2019-06-25T04:10:08.894Z,9.43
2019-06-25T04:12:37.227Z,9.37
2019-06-25T04:15:06.769Z,9.43
2019-06-25T04:17:35.161Z,9.57
2019-06-25T04:20:05.800Z,8.60
2019-06-25T04:22:34.109Z,9.70
2019-06-25T04:25:02.569Z,8.60
2019-06-25T04:27:31.025Z,9.67
2019-06-25T04:29:59.404Z,9.10
2019-06-25T04:32:33.506Z,9.20
2019-06-25T04:34:58.026Z,9.90
2019-06-25T04:37:26.328Z,10.20
2019-06-25T04:39:54.672Z,9.80
2019-06-25T04:42:22.970Z,9.27
2019-06-25T04:44:51.298Z,9.87
2019-06-25T04:47:19.670Z,9.67
2019-06-25T04:49:48.050Z,9.67
2019-06-25T04:52:16.455Z,10.43
2019-06-25T04:54:44.775Z,9.90
2019-06-25T04:57:13.076Z,9.80
2019-06-25T04:59:41.490Z,9.70
2019-06-25T05:02:09.890Z,9.50
2019-06-25T05:04:38.301Z,9.50
2019-06-25T05:07:06.615Z,9.77
2019-06-25T05:09:34.933Z,9.03
2019-06-25T05:12:03.348Z,9.63
2019-06-25T05:14:31.795Z,9.50
2019-06-25T05:17:00.761Z,9.90
2019-06-25T05:19:29.089Z,9.70
2019-06-25T05:21:57.507Z,10.03
2019-06-25T05:24:25.808Z,9.73
2019-06-25T05:26:54.122Z,8.87
2019-06-25T05:29:22.495Z,9.47
2019-06-25T05:31:50.936Z,9.60
2019-06-25T05:34:19.346Z,9.40
2019-06-25T05:36:49.348Z,9.10
2019-06-25T05:39:17.661Z,10.00
2019-06-25T05:41:46.086Z,9.73
2019-06-25T05:44:14.475Z,9.40
2019-06-25T05:46:42.867Z,9.60
2019-06-25T05:49:11.251Z,9.07
2019-06-25T05:51:39.577Z,9.03
2019-06-25T05:54:08.039Z,9.37
2019-06-25T05:56:36.445Z,9.83
2019-06-25T05:59:04.985Z,9.50
2019-06-25T06:01:33.593Z,9.67
2019-06-25T06:04:02.027Z,9.27
2019-06-25T06:06:30.528Z,9.00
2019-06-25T06:08:58.828Z,8.57
2019-06-25T06:11:27.238Z,9.30
2019-06-25T06:13:55.592Z,9.63
2019-06-25T06:16:24.088Z,8.90
2019-06-25T06:18:52.538Z,8.83
2019-06-25T06:21:21.236Z,9.47
2019-06-25T06:23:49.690Z,8.90
2019-06-25T06:26:19.055Z,9.33
2019-06-25T06:28:47.657Z,8.80
2019-06-25T06:31:17.990Z,9.40
2019-06-25T06:33:46.094Z,8.97
2019-06-25T06:36:14.390Z,8.97
2019-06-25T06:38:42.882Z,9.50
2019-06-25T06:41:11.870Z,8.57
2019-06-25T06:43:40.348Z,8.20
2019-06-25T06:46:08.791Z,8.00
2019-06-25T06:48:37.185Z,8.80
2019-06-25T06:51:05.575Z,8.47
2019-06-25T06:53:33.948Z,8.07
2019-06-25T06:56:02.664Z,9.00
2019-06-25T06:58:31.415Z,9.07
2019-06-25T07:00:59.973Z,9.30
2019-06-25T07:03:28.730Z,7.73
2019-06-25T07:05:57.156Z,7.63
2019-06-25T07:08:25.572Z,7.67
2019-06-25T07:10:53.967Z,10.10
2019-06-25T07:13:22.410Z,8.00
2019-06-25T07:15:50.815Z,8.17
2019-06-25T07:18:19.284Z,8.00
2019-06-25T07:20:47.746Z,7.60
2019-06-25T07:23:16.332Z,8.97
2019-06-25T07:25:45.514Z,7.80
2019-06-25T07:28:14.242Z,7.30
2019-06-25T07:30:43.414Z,7.77
2019-06-25T07:33:11.798Z,7.90
2019-06-25T07:35:40.219Z,8.23
2019-06-25T07:38:08.664Z,8.20
2019-06-25T07:40:37.033Z,8.00
2019-06-25T07:43:05.575Z,8.20
2019-06-25T07:45:33.967Z,8.00
2019-06-25T07:48:02.354Z,8.17
2019-06-25T07:50:30.738Z,8.13
2019-06-25T07:52:59.202Z,8.30
2019-06-25T07:55:27.643Z,8.30
2019-06-25T07:57:55.985Z,8.67
2019-06-25T08:00:24.394Z,9.10
2019-06-25T08:02:52.698Z,8.80
2019-06-25T08:05:21.173Z,9.20
2019-06-25T08:07:49.836Z,8.50
2019-06-25T08:10:18.429Z,8.40
2019-06-25T08:12:46.737Z,9.03
2019-06-25T08:15:16.960Z,9.07
2019-06-25T08:17:45.251Z,9.07
2019-06-25T08:20:14.229Z,8.03
2019-06-25T08:22:42.683Z,8.37
2019-06-25T08:25:11.207Z,8.60
2019-06-25T08:27:39.710Z,8.63
2019-06-25T08:30:10.960Z,8.43
2019-06-25T08:32:39.284Z,7.87
2019-06-25T08:35:08.349Z,9.03
2019-06-25T08:37:36.760Z,8.97
2019-06-25T08:40:19.063Z,8.13
2019-06-25T08:42:38.583Z,9.03
2019-06-25T08:45:08.926Z,9.00
2019-06-25T08:47:37.586Z,8.40
2019-06-25T08:50:07.103Z,8.17
2019-06-25T08:52:35.722Z,8.57
2019-06-25T08:55:04.811Z,8.10
2019-06-25T08:57:33.426Z,9.00
2019-06-25T09:00:01.886Z,8.57
2019-06-25T09:02:30.299Z,8.47
2019-06-25T09:05:03.208Z,8.27
2019-06-25T09:07:28.729Z,8.40
2019-06-25T09:09:57.303Z,9.00
2019-06-25T09:12:25.680Z,8.20
2019-06-25T09:14:54.053Z,8.93
2019-06-25T09:17:22.449Z,8.53
2019-06-25T09:19:50.948Z,9.30
2019-06-25T09:22:19.389Z,8.50
2019-06-25T09:24:47.743Z,8.80
2019-06-25T09:27:16.074Z,8.33
2019-06-25T09:29:45.280Z,8.60
2019-06-25T09:32:13.775Z,8.77
2019-06-25T09:34:42.127Z,8.57
2019-06-25T09:37:10.507Z,9.37
2019-06-25T09:39:41.361Z,9.00
2019-06-25T09:42:08.921Z,7.80
2019-06-25T09:44:36.183Z,8.90
2019-06-25T09:47:05.064Z,8.20
2019-06-25T09:49:35.425Z,8.50
2019-06-25T09:52:05.575Z,8.27
2019-06-25T09:54:33.973Z,8.10
2019-06-25T09:57:02.524Z,8.27
2019-06-25T09:59:31.111Z,8.03
2019-06-25T10:01:59.491Z,8.00
2019-06-25T10:04:27.888Z,7.97
2019-06-25T10:06:56.338Z,8.37
2019-06-25T10:09:24.654Z,8.43
2019-06-25T10:11:53.022Z,7.97
2019-06-25T10:14:21.407Z,8.10
2019-06-25T10:16:49.863Z,7.50
2019-06-25T10:19:18.354Z,7.70
2019-06-25T10:21:46.729Z,7.50
2019-06-25T10:24:15.058Z,7.90
2019-06-25T10:26:43.423Z,8.30
2019-06-25T10:29:11.832Z,8.20
2019-06-25T10:31:40.217Z,8.07
2019-06-25T10:34:08.700Z,7.40
2019-06-25T10:36:36.996Z,8.87
2019-06-25T10:39:07.166Z,7.50
2019-06-25T10:41:35.486Z,7.60
2019-06-25T10:44:04.364Z,7.50
2019-06-25T10:46:32.736Z,7.40
2019-06-25T10:49:01.148Z,7.40
2019-06-25T10:51:29.718Z,7.97
2019-06-25T10:53:58.051Z,7.63
2019-06-25T10:56:30.816Z,7.63
2019-06-25T10:58:56.502Z,7.40
2019-06-25T11:01:24.913Z,7.13
2019-06-25T11:03:53.225Z,6.90
2019-06-25T11:06:21.603Z,7.33
2019-06-25T11:08:49.974Z,6.53
2019-06-25T11:11:18.430Z,7.20
2019-06-25T11:13:46.791Z,7.27
2019-06-25T11:16:15.122Z,7.10
2019-06-25T11:18:43.480Z,6.37
2019-06-25T11:21:11.868Z,6.20
2019-06-25T11:23:40.236Z,6.43
2019-06-25T11:26:22.091Z,7.17
2019-06-25T11:28:38.642Z,6.87
2019-06-25T11:31:07.055Z,7.20
2019-06-25T11:33:35.525Z,7.67
2019-06-25T11:36:19.713Z,7.50
2019-06-25T11:38:33.998Z,7.27
2019-06-25T11:41:02.347Z,7.80
2019-06-25T11:43:43.714Z,7.17
2019-06-25T11:46:00.853Z,7.60
2019-06-25T11:48:29.155Z,7.30
2019-06-25T11:50:57.565Z,8.30
2019-06-25T11:53:26.014Z,7.60
2019-06-25T11:55:54.344Z,7.90
2019-06-25T11:58:22.640Z,8.10
2019-06-25T12:00:51.018Z,7.40
2019-06-25T12:03:19.398Z,8.20
2019-06-25T12:05:47.778Z,7.90
2019-06-25T12:08:16.428Z,8.50
2019-06-25T12:10:44.958Z,8.27
2019-06-25T12:13:13.328Z,8.00
2019-06-25T12:15:41.645Z,8.10
2019-06-25T12:18:10.043Z,7.87
2019-06-25T12:20:38.452Z,7.50
2019-06-25T12:23:06.880Z,8.10
2019-06-25T12:25:35.293Z,8.03
2019-06-25T12:28:03.638Z,7.37
2019-06-25T12:30:31.934Z,7.70
2019-06-25T12:33:00.358Z,8.43
2019-06-25T12:35:28.725Z,7.77
2019-06-25T12:37:57.210Z,8.37
2019-06-25T12:40:25.495Z,7.60
2019-06-25T12:42:53.861Z,7.40
2019-06-25T12:45:22.320Z,6.70
2019-06-25T12:47:50.918Z,7.40
2019-06-25T12:50:20.374Z,7.50
2019-06-25T12:52:48.861Z,7.30
2019-06-25T12:55:17.209Z,6.80
2019-06-25T12:57:45.545Z,6.93
2019-06-25T13:00:14.553Z,7.50
2019-06-25T13:02:43.111Z,7.13
2019-06-25T13:05:11.978Z,7.63
2019-06-25T13:07:40.275Z,6.53
2019-06-25T13:10:09.457Z,6.00
2019-06-25T13:12:37.875Z,7.10
2019-06-25T13:15:07.944Z,7.30
2019-06-25T13:17:36.273Z,6.20
2019-06-25T13:20:06.013Z,6.10
2019-06-25T13:22:34.492Z,6.93
2019-06-25T13:25:02.871Z,8.10
2019-06-25T13:27:31.204Z,6.70
2019-06-25T13:29:59.566Z,6.50
2019-06-25T13:32:27.967Z,6.80
2019-06-25T13:34:56.496Z,5.90
2019-06-25T13:37:38.176Z,7.23
2019-06-25T13:39:55.570Z,7.87
2019-06-25T13:42:23.854Z,6.27
2019-06-25T13:44:52.213Z,6.17
2019-06-25T13:47:20.517Z,5.63
2019-06-25T13:49:48.835Z,6.77
2019-06-25T13:52:17.150Z,6.30
2019-06-25T13:54:45.455Z,7.13
2019-06-25T13:57:13.751Z,6.63
2019-06-25T13:59:42.120Z,5.73
2019-06-25T14:02:10.495Z,9.53
2019-06-25T14:04:38.824Z,5.23
2019-06-25T14:07:07.225Z,6.10
2019-06-25T14:09:35.692Z,6.63
2019-06-25T14:12:04.061Z,7.13
2019-06-25T14:14:32.451Z,7.30
2019-06-25T14:17:00.840Z,7.60
2019-06-25T14:19:29.343Z,7.10
2019-06-25T14:21:57.636Z,6.37
2019-06-25T14:24:25.966Z,6.53
2019-06-25T14:26:54.598Z,6.70
2019-06-25T14:29:22.976Z,6.27
2019-06-25T14:31:51.416Z,6.20
2019-06-25T14:34:19.844Z,6.80
2019-06-25T14:36:48.272Z,5.60
2019-06-25T14:39:16.673Z,8.43
2019-06-25T14:41:44.967Z,6.40
2019-06-25T14:44:13.947Z,6.47
2019-06-25T14:46:43.463Z,6.67
2019-06-25T14:49:12.090Z,6.03
2019-06-25T14:51:40.781Z,6.13
2019-06-25T14:54:09.281Z,6.53
2019-06-25T14:56:37.637Z,6.00
2019-06-25T14:59:05.923Z,7.30
2019-06-25T15:01:34.326Z,6.10
2019-06-25T15:04:03.536Z,6.43
2019-06-25T15:06:32.000Z,6.30
2019-06-25T15:09:00.296Z,6.17
2019-06-25T15:11:28.778Z,5.30
2019-06-25T15:13:57.058Z,5.50
2019-06-25T15:16:25.386Z,7.30
2019-06-25T15:18:53.692Z,4.83
2019-06-25T15:21:24.705Z,5.80
2019-06-25T15:23:52.118Z,5.80
2019-06-25T15:26:20.592Z,5.80
2019-06-25T15:28:49.390Z,5.57
2019-06-25T15:31:18.013Z,5.40
2019-06-25T15:33:46.281Z,5.83
2019-06-25T15:36:14.606Z,5.47
2019-06-25T15:38:47.158Z,4.80
2019-06-25T15:41:13.157Z,4.83
2019-06-25T15:43:41.460Z,5.30
2019-06-25T15:46:09.844Z,5.63
2019-06-25T15:48:38.230Z,5.00
2019-06-25T15:51:06.655Z,4.57
2019-06-25T15:53:34.896Z,5.63
2019-06-25T15:56:03.303Z,5.37
2019-06-25T15:58:31.580Z,4.40
2019-06-25T16:00:59.925Z,4.97
2019-06-25T16:03:28.246Z,4.90
2019-06-25T16:05:56.646Z,4.47
2019-06-25T16:08:25.086Z,4.27
2019-06-25T16:10:53.385Z,4.93
2019-06-25T16:13:21.810Z,4.90
2019-06-25T16:15:50.118Z,4.70
2019-06-25T16:18:18.416Z,4.80
2019-06-25T16:20:46.789Z,4.97
2019-06-25T16:23:15.132Z,4.17
2019-06-25T16:25:43.645Z,4.57
2019-06-25T16:28:12.001Z,4.47
2019-06-25T16:30:40.294Z,7.17
2019-06-25T16:33:08.729Z,5.10
2019-06-25T16:35:37.257Z,4.33
2019-06-25T16:38:05.664Z,5.03
2019-06-25T16:40:34.064Z,4.93
2019-06-25T16:43:02.400Z,5.10
2019-06-25T16:45:30.695Z,5.03
2019-06-25T16:47:59.023Z,4.80
2019-06-25T16:50:27.415Z,4.90
2019-06-25T16:52:55.781Z,4.73
2019-06-25T16:55:24.231Z,4.60
2019-06-25T16:57:52.640Z,5.33
2019-06-25T17:00:21.076Z,5.00
2019-06-25T17:02:54.290Z,5.43
2019-06-25T17:05:31.214Z,5.37
2019-06-25T17:07:49.784Z,4.83
2019-06-25T17:10:19.373Z,5.30
2019-06-25T17:12:47.856Z,4.70
2019-06-25T17:15:16.203Z,4.33
2019-06-25T17:17:44.577Z,5.37
2019-06-25T17:20:13.861Z,6.57
2019-06-25T17:22:42.219Z,5.50
2019-06-25T17:25:10.733Z,4.93
2019-06-25T17:27:49.177Z,4.40
2019-06-25T17:30:09.368Z,4.63
2019-06-25T17:32:38.012Z,5.03
2019-06-25T17:35:09.510Z,4.57
2019-06-25T17:37:37.808Z,5.00
2019-06-25T17:40:07.778Z,4.87
2019-06-25T17:42:36.118Z,4.70
2019-06-25T17:45:07.048Z,4.60
2019-06-25T17:47:35.407Z,5.27
2019-06-25T17:50:05.808Z,4.43
2019-06-25T17:52:34.159Z,4.97
2019-06-25T17:55:02.608Z,5.27
2019-06-25T17:57:32.457Z,5.47
2019-06-25T18:00:00.805Z,5.10
2019-06-25T18:02:29.105Z,6.13
2019-06-25T18:04:57.580Z,5.10
2019-06-25T18:07:25.981Z,6.03
2019-06-25T18:10:07.085Z,7.10
2019-06-25T18:12:26.152Z,6.10
2019-06-25T18:14:54.575Z,5.60
2019-06-25T18:17:24.936Z,5.00
2019-06-25T18:19:53.402Z,5.50
2019-06-25T18:22:21.763Z,5.57
2019-06-25T18:24:50.194Z,6.00
2019-06-25T18:27:18.636Z,6.50
2019-06-25T18:29:47.058Z,6.80
2019-06-25T18:32:15.589Z,6.50
2019-06-25T18:34:43.985Z,5.77
2019-06-25T18:37:12.499Z,5.57
2019-06-25T18:39:40.909Z,6.30
2019-06-25T18:42:11.917Z,6.93
2019-06-25T18:44:42.836Z,7.83
2019-06-25T18:47:11.249Z,6.57
2019-06-25T18:49:39.631Z,6.70
2019-06-25T18:52:08.274Z,7.47
2019-06-25T18:54:36.647Z,7.50
2019-06-25T18:57:05.123Z,7.23
2019-06-25T18:59:37.493Z,8.53
2019-06-25T19:02:07.382Z,6.60
2019-06-25T19:04:35.888Z,8.60
2019-06-25T19:07:04.424Z,8.30
2019-06-25T19:09:32.888Z,10.00
2019-06-25T19:12:01.405Z,7.97
2019-06-25T19:14:32.223Z,8.30
2019-06-25T19:17:00.049Z,7.40
2019-06-25T19:19:28.425Z,7.20
2019-06-25T19:21:56.897Z,7.27
2019-06-25T19:24:25.399Z,7.13
2019-06-25T19:26:53.717Z,6.07
2019-06-25T19:29:22.051Z,8.00
2019-06-25T19:31:50.404Z,8.00
2019-06-25T19:34:18.761Z,7.80
2019-06-25T19:36:47.206Z,8.00
2019-06-25T19:39:17.147Z,7.50
2019-06-25T19:41:45.675Z,7.27
2019-06-25T19:44:14.157Z,8.10
2019-06-25T19:46:42.604Z,7.77
2019-06-25T19:49:11.071Z,9.00
2019-06-25T19:51:39.623Z,8.37
2019-06-25T19:54:08.053Z,8.67
2019-06-25T19:56:36.406Z,10.37
2019-06-25T19:59:04.858Z,9.23
2019-06-25T20:01:33.228Z,8.70
2019-06-25T20:04:01.655Z,9.33
2019-06-25T20:06:30.040Z,9.23
2019-06-25T20:08:58.450Z,10.00
2019-06-25T20:11:26.855Z,10.23
2019-06-25T20:13:55.210Z,9.30
2019-06-25T20:16:23.627Z,9.80
2019-06-25T20:18:52.019Z,9.70
2019-06-25T20:21:20.433Z,9.00
2019-06-25T20:23:48.793Z,9.47
2019-06-25T20:26:17.318Z,9.93
2019-06-25T20:28:45.647Z,9.53
2019-06-25T20:31:13.969Z,10.00
2019-06-25T20:33:42.431Z,9.00
2019-06-25T20:36:10.935Z,9.53
2019-06-25T20:38:39.463Z,9.50
2019-06-25T20:41:07.857Z,9.70
2019-06-25T20:43:36.190Z,9.73
2019-06-25T20:46:05.364Z,10.70
2019-06-25T20:48:33.770Z,9.90
2019-06-25T20:51:02.186Z,9.90
2019-06-25T20:53:32.645Z,10.77
2019-06-25T20:56:00.684Z,10.10
2019-06-25T20:58:29.014Z,10.17
2019-06-25T21:00:57.415Z,9.73
2019-06-25T21:03:25.784Z,10.27
2019-06-25T21:05:54.696Z,10.93
2019-06-25T21:08:23.024Z,10.47
2019-06-25T21:10:51.718Z,10.20
2019-06-25T21:13:20.033Z,9.87
2019-06-25T21:15:48.441Z,10.30
2019-06-25T21:18:16.736Z,10.13
2019-06-25T21:20:45.245Z,9.80
2019-06-25T21:23:13.544Z,10.27
2019-06-25T21:25:42.151Z,10.30
2019-06-25T21:28:10.548Z,9.87
2019-06-25T21:30:39.332Z,9.27
2019-06-25T21:33:07.714Z,10.20
2019-06-25T21:35:36.061Z,9.63
2019-06-25T21:38:04.501Z,9.70
2019-06-25T21:40:32.893Z,10.30
2019-06-25T21:43:01.325Z,10.93
2019-06-25T21:45:29.734Z,10.20
2019-06-25T21:47:58.039Z,10.53
2019-06-25T21:50:26.456Z,9.83
2019-06-25T21:52:54.754Z,9.80
2019-06-25T21:55:23.377Z,9.70
2019-06-25T21:57:51.680Z,10.60
2019-06-25T22:00:21.796Z,10.80
2019-06-25T22:02:56.992Z,10.30
2019-06-25T22:05:25.391Z,11.23
2019-06-25T22:07:53.700Z,11.77
2019-06-25T22:10:22.655Z,10.70
2019-06-25T22:12:51.048Z,11.30
2019-06-25T22:15:19.420Z,10.77
2019-06-25T22:17:47.845Z,11.40
2019-06-25T22:20:17.791Z,10.07
2019-06-25T22:22:46.162Z,10.80
2019-06-25T22:25:15.133Z,11.07
2019-06-25T22:27:43.540Z,11.40
2019-06-25T22:30:12.367Z,11.00
2019-06-25T22:32:40.782Z,10.30
2019-06-25T22:35:09.331Z,11.60
2019-06-25T22:37:37.722Z,10.73
2019-06-25T22:40:09.366Z,11.50
2019-06-25T22:42:38.077Z,11.53
2019-06-25T22:45:07.092Z,11.10
2019-06-25T22:47:35.475Z,11.50
2019-06-25T22:50:05.418Z,11.63
2019-06-25T22:52:34.187Z,11.93
2019-06-25T22:55:02.559Z,11.63
2019-06-25T22:57:31.053Z,10.83
2019-06-25T22:59:59.363Z,11.53
2019-06-25T23:02:27.693Z,10.47
2019-06-25T23:04:56.013Z,12.70
2019-06-25T23:07:24.435Z,12.40
2019-06-25T23:09:52.754Z,11.30
2019-06-25T23:12:21.528Z,11.33
2019-06-25T23:14:49.819Z,12.50
2019-06-25T23:17:18.901Z,10.97
2019-06-25T23:19:47.240Z,11.53
2019-06-25T23:22:15.635Z,13.07
2019-06-25T23:24:43.951Z,11.70
2019-06-25T23:27:12.333Z,11.27
2019-06-25T23:29:40.752Z,11.73
2019-06-25T23:32:09.055Z,11.90
2019-06-25T23:34:37.499Z,12.50
2019-06-25T23:37:06.055Z,11.87
2019-06-25T23:39:34.440Z,12.50
2019-06-25T23:42:02.789Z,12.27
2019-06-25T23:44:31.212Z,12.70
2019-06-25T23:46:59.596Z,11.77
2019-06-25T23:49:28.036Z,11.40
2019-06-25T23:51:56.599Z,12.40
2019-06-25T23:54:24.975Z,11.97
2019-06-25T23:56:53.236Z,12.77
2019-06-25T23:59:21.910Z,12.20
